sensor_id;sensor_type;location;lat;lon;timestamp;P1;durP1;ratioP1;P2;durP2;ratioP2
44456;SDS011;30159;49.316;8.558;2023-05-07T00:00:12;4.00;;;3.80;;
44456;SDS011;30159;49.316;8.558;2023-05-07T00:02:40;4.63;;;3.50;;
44456;SDS011;30159;49.316;8.558;2023-05-07T00:05:07;4.33;;;4.00;;
44456;SDS011;30159;49.316;8.558;2023-05-07T00:07:34;4.20;;;3.90;;
44456;SDS011;30159;49.316;8.558;2023-05-07T00:10:02;3.70;;;3.50;;
44456;SDS011;30159;49.316;8.558;2023-05-07T00:12:29;3.80;;;3.50;;
44456;SDS011;30159;49.316;8.558;2023-05-07T00:14:56;3.60;;;3.30;;
44456;SDS011;30159;49.316;8.558;2023-05-07T00:17:23;5.43;;;3.53;;
44456;SDS011;30159;49.316;8.558;2023-05-07T00:19:49;3.70;;;3.50;;
44456;SDS011;30159;49.316;8.558;2023-05-07T00:22:16;4.73;;;4.43;;
44456;SDS011;30159;49.316;8.558;2023-05-07T00:24:42;3.70;;;3.50;;
44456;SDS011;30159;49.316;8.558;2023-05-07T00:27:10;5.40;;;4.90;;
44456;SDS011;30159;49.316;8.558;2023-05-07T00:29:37;4.67;;;4.27;;
44456;SDS011;30159;49.316;8.558;2023-05-07T00:32:03;4.27;;;3.97;;
44456;SDS011;30159;49.316;8.558;2023-05-07T00:34:30;4.87;;;4.47;;
44456;SDS011;30159;49.316;8.558;2023-05-07T00:36:57;4.40;;;4.10;;
44456;SDS011;30159;49.316;8.558;2023-05-07T00:39:23;4.83;;;4.40;;
44456;SDS011;30159;49.316;8.558;2023-05-07T00:41:50;3.90;;;3.60;;
44456;SDS011;30159;49.316;8.558;2023-05-07T00:44:18;4.03;;;3.57;;
44456;SDS011;30159;49.316;8.558;2023-05-07T00:46:44;4.90;;;4.50;;
44456;SDS011;30159;49.316;8.558;2023-05-07T00:49:13;4.03;;;3.83;;
44456;SDS011;30159;49.316;8.558;2023-05-07T00:51:40;4.80;;;4.30;;
44456;SDS011;30159;49.316;8.558;2023-05-07T00:54:07;4.83;;;4.60;;
44456;SDS011;30159;49.316;8.558;2023-05-07T00:56:34;4.67;;;4.27;;
44456;SDS011;30159;49.316;8.558;2023-05-07T00:59:02;5.10;;;4.70;;
44456;SDS011;30159;49.316;8.558;2023-05-07T01:01:30;36.97;;;6.27;;
44456;SDS011;30159;49.316;8.558;2023-05-07T01:03:57;6.43;;;5.53;;
44456;SDS011;30159;49.316;8.558;2023-05-07T01:06:24;5.47;;;4.80;;
44456;SDS011;30159;49.316;8.558;2023-05-07T01:08:53;5.60;;;5.17;;
44456;SDS011;30159;49.316;8.558;2023-05-07T01:11:21;6.00;;;5.50;;
44456;SDS011;30159;49.316;8.558;2023-05-07T01:13:49;4.80;;;4.50;;
44456;SDS011;30159;49.316;8.558;2023-05-07T01:16:16;5.77;;;5.37;;
44456;SDS011;30159;49.316;8.558;2023-05-07T01:18:44;4.97;;;4.60;;
44456;SDS011;30159;49.316;8.558;2023-05-07T01:21:13;5.43;;;4.70;;
44456;SDS011;30159;49.316;8.558;2023-05-07T01:23:44;5.83;;;5.23;;
44456;SDS011;30159;49.316;8.558;2023-05-07T01:26:12;6.87;;;5.73;;
44456;SDS011;30159;49.316;8.558;2023-05-07T01:28:38;5.30;;;4.67;;
44456;SDS011;30159;49.316;8.558;2023-05-07T01:31:05;3.40;;;3.20;;
44456;SDS011;30159;49.316;8.558;2023-05-07T01:33:33;4.77;;;3.17;;
44456;SDS011;30159;49.316;8.558;2023-05-07T01:36:01;5.93;;;3.10;;
44456;SDS011;30159;49.316;8.558;2023-05-07T01:38:31;3.23;;;3.03;;
44456;SDS011;30159;49.316;8.558;2023-05-07T01:40:59;3.53;;;3.33;;
44456;SDS011;30159;49.316;8.558;2023-05-07T01:43:26;4.60;;;3.70;;
44456;SDS011;30159;49.316;8.558;2023-05-07T01:45:53;3.40;;;3.20;;
44456;SDS011;30159;49.316;8.558;2023-05-07T01:48:20;2.97;;;2.77;;
44456;SDS011;30159;49.316;8.558;2023-05-07T01:50:47;3.13;;;2.83;;
44456;SDS011;30159;49.316;8.558;2023-05-07T01:53:14;3.00;;;2.80;;
44456;SDS011;30159;49.316;8.558;2023-05-07T01:55:41;3.60;;;3.30;;
44456;SDS011;30159;49.316;8.558;2023-05-07T01:58:09;3.53;;;3.23;;
44456;SDS011;30159;49.316;8.558;2023-05-07T02:00:35;3.17;;;2.97;;
44456;SDS011;30159;49.316;8.558;2023-05-07T02:03:02;3.00;;;2.80;;
44456;SDS011;30159;49.316;8.558;2023-05-07T02:05:29;3.30;;;3.10;;
44456;SDS011;30159;49.316;8.558;2023-05-07T02:07:56;4.27;;;3.90;;
44456;SDS011;30159;49.316;8.558;2023-05-07T02:10:22;3.07;;;2.80;;
44456;SDS011;30159;49.316;8.558;2023-05-07T02:12:49;3.67;;;3.47;;
44456;SDS011;30159;49.316;8.558;2023-05-07T02:15:17;4.33;;;4.03;;
44456;SDS011;30159;49.316;8.558;2023-05-07T02:17:57;4.60;;;4.30;;
44456;SDS011;30159;49.316;8.558;2023-05-07T02:20:25;5.20;;;4.80;;
44456;SDS011;30159;49.316;8.558;2023-05-07T02:22:52;5.40;;;4.30;;
44456;SDS011;30159;49.316;8.558;2023-05-07T02:25:18;4.97;;;4.67;;
44456;SDS011;30159;49.316;8.558;2023-05-07T02:27:45;6.07;;;5.37;;
44456;SDS011;30159;49.316;8.558;2023-05-07T02:30:12;5.63;;;5.30;;
44456;SDS011;30159;49.316;8.558;2023-05-07T02:32:40;5.40;;;5.00;;
44456;SDS011;30159;49.316;8.558;2023-05-07T02:35:07;6.27;;;5.87;;
44456;SDS011;30159;49.316;8.558;2023-05-07T02:37:33;7.43;;;5.90;;
44456;SDS011;30159;49.316;8.558;2023-05-07T02:40:00;6.77;;;5.73;;
44456;SDS011;30159;49.316;8.558;2023-05-07T02:42:29;6.27;;;5.80;;
44456;SDS011;30159;49.316;8.558;2023-05-07T02:44:55;8.93;;;6.40;;
44456;SDS011;30159;49.316;8.558;2023-05-07T02:47:22;7.80;;;7.10;;
44456;SDS011;30159;49.316;8.558;2023-05-07T02:49:50;6.93;;;6.43;;
44456;SDS011;30159;49.316;8.558;2023-05-07T02:52:16;9.10;;;6.43;;
44456;SDS011;30159;49.316;8.558;2023-05-07T02:54:43;7.23;;;6.60;;
44456;SDS011;30159;49.316;8.558;2023-05-07T02:57:09;6.80;;;6.13;;
44456;SDS011;30159;49.316;8.558;2023-05-07T02:59:36;6.47;;;5.83;;
44456;SDS011;30159;49.316;8.558;2023-05-07T03:02:03;8.80;;;6.17;;
44456;SDS011;30159;49.316;8.558;2023-05-07T03:04:30;6.30;;;5.80;;
44456;SDS011;30159;49.316;8.558;2023-05-07T03:06:58;7.13;;;6.37;;
44456;SDS011;30159;49.316;8.558;2023-05-07T03:09:25;6.00;;;5.50;;
44456;SDS011;30159;49.316;8.558;2023-05-07T03:11:51;9.47;;;5.73;;
44456;SDS011;30159;49.316;8.558;2023-05-07T03:14:18;7.70;;;6.57;;
44456;SDS011;30159;49.316;8.558;2023-05-07T03:16:45;8.17;;;6.33;;
44456;SDS011;30159;49.316;8.558;2023-05-07T03:19:12;7.30;;;6.73;;
44456;SDS011;30159;49.316;8.558;2023-05-07T03:21:38;7.67;;;5.97;;
44456;SDS011;30159;49.316;8.558;2023-05-07T03:24:06;7.13;;;6.50;;
44456;SDS011;30159;49.316;8.558;2023-05-07T03:26:33;6.77;;;6.20;;
44456;SDS011;30159;49.316;8.558;2023-05-07T03:28:59;6.87;;;6.37;;
44456;SDS011;30159;49.316;8.558;2023-05-07T03:31:26;8.17;;;6.37;;
44456;SDS011;30159;49.316;8.558;2023-05-07T03:33:53;7.73;;;6.93;;
44456;SDS011;30159;49.316;8.558;2023-05-07T03:36:21;7.57;;;6.97;;
44456;SDS011;30159;49.316;8.558;2023-05-07T03:38:49;6.90;;;6.40;;
44456;SDS011;30159;49.316;8.558;2023-05-07T03:41:17;7.00;;;6.43;;
44456;SDS011;30159;49.316;8.558;2023-05-07T03:43:46;7.17;;;6.50;;
44456;SDS011;30159;49.316;8.558;2023-05-07T03:46:13;6.60;;;6.10;;
44456;SDS011;30159;49.316;8.558;2023-05-07T03:48:39;5.93;;;5.43;;
44456;SDS011;30159;49.316;8.558;2023-05-07T03:51:06;8.00;;;6.50;;
44456;SDS011;30159;49.316;8.558;2023-05-07T03:53:32;8.03;;;7.33;;
44456;SDS011;30159;49.316;8.558;2023-05-07T03:55:59;7.67;;;7.07;;
44456;SDS011;30159;49.316;8.558;2023-05-07T03:58:27;7.00;;;6.60;;
44456;SDS011;30159;49.316;8.558;2023-05-07T04:00:53;7.97;;;7.37;;
44456;SDS011;30159;49.316;8.558;2023-05-07T04:03:20;7.50;;;6.90;;
44456;SDS011;30159;49.316;8.558;2023-05-07T04:05:47;7.63;;;7.03;;
44456;SDS011;30159;49.316;8.558;2023-05-07T04:08:13;7.47;;;6.70;;
44456;SDS011;30159;49.316;8.558;2023-05-07T04:10:40;7.07;;;6.53;;
44456;SDS011;30159;49.316;8.558;2023-05-07T04:13:06;7.03;;;6.43;;
44456;SDS011;30159;49.316;8.558;2023-05-07T04:15:34;6.50;;;6.10;;
44456;SDS011;30159;49.316;8.558;2023-05-07T04:18:03;10.20;;;7.40;;
44456;SDS011;30159;49.316;8.558;2023-05-07T04:20:30;9.27;;;6.63;;
44456;SDS011;30159;49.316;8.558;2023-05-07T04:22:56;7.70;;;7.20;;
44456;SDS011;30159;49.316;8.558;2023-05-07T04:25:23;5.83;;;5.43;;
44456;SDS011;30159;49.316;8.558;2023-05-07T04:27:51;6.83;;;6.43;;
44456;SDS011;30159;49.316;8.558;2023-05-07T04:30:17;6.70;;;6.20;;
44456;SDS011;30159;49.316;8.558;2023-05-07T04:32:46;7.23;;;6.63;;
44456;SDS011;30159;49.316;8.558;2023-05-07T04:35:13;7.30;;;6.60;;
44456;SDS011;30159;49.316;8.558;2023-05-07T04:37:39;6.97;;;6.47;;
44456;SDS011;30159;49.316;8.558;2023-05-07T04:40:06;6.30;;;5.83;;
44456;SDS011;30159;49.316;8.558;2023-05-07T04:42:33;6.43;;;6.03;;
44456;SDS011;30159;49.316;8.558;2023-05-07T04:45:00;6.40;;;6.00;;
44456;SDS011;30159;49.316;8.558;2023-05-07T04:47:28;13.73;;;7.87;;
44456;SDS011;30159;49.316;8.558;2023-05-07T04:49:55;8.30;;;7.60;;
44456;SDS011;30159;49.316;8.558;2023-05-07T04:52:23;8.13;;;7.43;;
44456;SDS011;30159;49.316;8.558;2023-05-07T04:54:50;7.80;;;7.10;;
44456;SDS011;30159;49.316;8.558;2023-05-07T04:57:16;6.43;;;5.97;;
44456;SDS011;30159;49.316;8.558;2023-05-07T04:59:43;6.40;;;6.00;;
44456;SDS011;30159;49.316;8.558;2023-05-07T05:02:09;6.77;;;5.50;;
44456;SDS011;30159;49.316;8.558;2023-05-07T05:04:36;6.80;;;6.30;;
44456;SDS011;30159;49.316;8.558;2023-05-07T05:07:04;6.23;;;5.83;;
44456;SDS011;30159;49.316;8.558;2023-05-07T05:09:30;6.43;;;6.03;;
44456;SDS011;30159;49.316;8.558;2023-05-07T05:11:57;6.30;;;5.90;;
44456;SDS011;30159;49.316;8.558;2023-05-07T05:14:24;5.90;;;5.50;;
44456;SDS011;30159;49.316;8.558;2023-05-07T05:16:51;5.93;;;5.53;;
44456;SDS011;30159;49.316;8.558;2023-05-07T05:19:18;5.30;;;4.90;;
44456;SDS011;30159;49.316;8.558;2023-05-07T05:21:44;5.50;;;5.13;;
44456;SDS011;30159;49.316;8.558;2023-05-07T05:24:12;5.27;;;4.97;;
44456;SDS011;30159;49.316;8.558;2023-05-07T05:26:39;5.10;;;4.70;;
44456;SDS011;30159;49.316;8.558;2023-05-07T05:29:07;5.33;;;4.90;;
44456;SDS011;30159;49.316;8.558;2023-05-07T05:31:34;5.80;;;5.50;;
44456;SDS011;30159;49.316;8.558;2023-05-07T05:34:01;6.50;;;5.90;;
44456;SDS011;30159;49.316;8.558;2023-05-07T05:36:28;5.43;;;5.00;;
44456;SDS011;30159;49.316;8.558;2023-05-07T05:38:55;5.30;;;4.90;;
44456;SDS011;30159;49.316;8.558;2023-05-07T05:41:23;5.60;;;5.20;;
44456;SDS011;30159;49.316;8.558;2023-05-07T05:43:50;5.53;;;5.23;;
44456;SDS011;30159;49.316;8.558;2023-05-07T05:46:16;5.97;;;5.60;;
44456;SDS011;30159;49.316;8.558;2023-05-07T05:48:43;6.53;;;4.83;;
44456;SDS011;30159;49.316;8.558;2023-05-07T05:51:09;4.77;;;4.47;;
44456;SDS011;30159;49.316;8.558;2023-05-07T05:53:36;5.40;;;5.00;;
44456;SDS011;30159;49.316;8.558;2023-05-07T05:56:02;5.90;;;5.50;;
44456;SDS011;30159;49.316;8.558;2023-05-07T05:58:31;5.40;;;5.00;;
44456;SDS011;30159;49.316;8.558;2023-05-07T06:00:58;6.00;;;5.23;;
44456;SDS011;30159;49.316;8.558;2023-05-07T06:03:24;5.40;;;5.00;;
44456;SDS011;30159;49.316;8.558;2023-05-07T06:05:51;5.10;;;4.80;;
44456;SDS011;30159;49.316;8.558;2023-05-07T06:08:17;5.60;;;5.33;;
44456;SDS011;30159;49.316;8.558;2023-05-07T06:10:44;6.40;;;5.90;;
44456;SDS011;30159;49.316;8.558;2023-05-07T06:13:11;5.57;;;5.17;;
44456;SDS011;30159;49.316;8.558;2023-05-07T06:15:39;5.20;;;4.80;;
44456;SDS011;30159;49.316;8.558;2023-05-07T06:18:05;5.70;;;5.40;;
44456;SDS011;30159;49.316;8.558;2023-05-07T06:20:32;4.80;;;4.50;;
44456;SDS011;30159;49.316;8.558;2023-05-07T06:22:58;6.07;;;5.33;;
44456;SDS011;30159;49.316;8.558;2023-05-07T06:25:25;5.03;;;4.77;;
44456;SDS011;30159;49.316;8.558;2023-05-07T06:27:51;5.10;;;4.70;;
44456;SDS011;30159;49.316;8.558;2023-05-07T06:30:18;5.23;;;4.83;;
44456;SDS011;30159;49.316;8.558;2023-05-07T06:32:46;3.97;;;3.77;;
44456;SDS011;30159;49.316;8.558;2023-05-07T06:35:12;4.23;;;3.87;;
44456;SDS011;30159;49.316;8.558;2023-05-07T06:37:40;4.10;;;3.80;;
44456;SDS011;30159;49.316;8.558;2023-05-07T06:40:07;4.20;;;3.77;;
44456;SDS011;30159;49.316;8.558;2023-05-07T06:42:35;3.87;;;3.57;;
44456;SDS011;30159;49.316;8.558;2023-05-07T06:45:02;3.97;;;3.77;;
44456;SDS011;30159;49.316;8.558;2023-05-07T06:47:28;3.63;;;3.43;;
44456;SDS011;30159;49.316;8.558;2023-05-07T06:49:56;3.67;;;3.43;;
44456;SDS011;30159;49.316;8.558;2023-05-07T06:52:23;3.37;;;3.07;;
44456;SDS011;30159;49.316;8.558;2023-05-07T06:54:50;2.57;;;2.47;;
44456;SDS011;30159;49.316;8.558;2023-05-07T06:57:16;3.07;;;2.87;;
44456;SDS011;30159;49.316;8.558;2023-05-07T06:59:44;2.77;;;2.47;;
44456;SDS011;30159;49.316;8.558;2023-05-07T07:02:10;2.20;;;2.10;;
44456;SDS011;30159;49.316;8.558;2023-05-07T07:04:37;1.67;;;1.57;;
44456;SDS011;30159;49.316;8.558;2023-05-07T07:07:05;1.80;;;1.70;;
44456;SDS011;30159;49.316;8.558;2023-05-07T07:09:31;2.37;;;2.27;;
44456;SDS011;30159;49.316;8.558;2023-05-07T07:11:58;1.67;;;1.57;;
44456;SDS011;30159;49.316;8.558;2023-05-07T07:14:24;1.60;;;1.50;;
44456;SDS011;30159;49.316;8.558;2023-05-07T07:16:51;5.33;;;2.00;;
44456;SDS011;30159;49.316;8.558;2023-05-07T07:19:17;2.20;;;2.10;;
44456;SDS011;30159;49.316;8.558;2023-05-07T07:21:45;1.80;;;1.70;;
44456;SDS011;30159;49.316;8.558;2023-05-07T07:24:13;2.40;;;2.20;;
44456;SDS011;30159;49.316;8.558;2023-05-07T07:26:44;1.37;;;1.27;;
44456;SDS011;30159;49.316;8.558;2023-05-07T07:29:10;1.47;;;1.37;;
44456;SDS011;30159;49.316;8.558;2023-05-07T07:31:37;1.57;;;1.47;;
44456;SDS011;30159;49.316;8.558;2023-05-07T07:34:03;1.50;;;1.40;;
44456;SDS011;30159;49.316;8.558;2023-05-07T07:36:30;1.60;;;1.50;;
44456;SDS011;30159;49.316;8.558;2023-05-07T07:38:56;1.43;;;1.33;;
44456;SDS011;30159;49.316;8.558;2023-05-07T07:41:24;1.40;;;1.30;;
44456;SDS011;30159;49.316;8.558;2023-05-07T07:43:51;1.67;;;1.30;;
44456;SDS011;30159;49.316;8.558;2023-05-07T07:46:17;1.37;;;1.27;;
44456;SDS011;30159;49.316;8.558;2023-05-07T07:48:44;1.57;;;1.47;;
44456;SDS011;30159;49.316;8.558;2023-05-07T07:51:10;4.13;;;1.60;;
44456;SDS011;30159;49.316;8.558;2023-05-07T07:53:37;1.47;;;1.37;;
44456;SDS011;30159;49.316;8.558;2023-05-07T07:56:03;3.33;;;1.53;;
44456;SDS011;30159;49.316;8.558;2023-05-07T07:58:32;2.23;;;1.50;;
44456;SDS011;30159;49.316;8.558;2023-05-07T08:01:00;1.60;;;1.50;;
44456;SDS011;30159;49.316;8.558;2023-05-07T08:03:27;1.70;;;1.60;;
44456;SDS011;30159;49.316;8.558;2023-05-07T08:05:56;1.53;;;1.43;;
44456;SDS011;30159;49.316;8.558;2023-05-07T08:08:23;3.00;;;1.70;;
44456;SDS011;30159;49.316;8.558;2023-05-07T08:10:49;1.77;;;1.40;;
44456;SDS011;30159;49.316;8.558;2023-05-07T08:13:17;1.70;;;1.60;;
44456;SDS011;30159;49.316;8.558;2023-05-07T08:15:45;1.80;;;1.70;;
44456;SDS011;30159;49.316;8.558;2023-05-07T08:18:11;1.70;;;1.60;;
44456;SDS011;30159;49.316;8.558;2023-05-07T08:20:38;2.00;;;1.80;;
44456;SDS011;30159;49.316;8.558;2023-05-07T08:23:06;2.13;;;1.53;;
44456;SDS011;30159;49.316;8.558;2023-05-07T08:25:33;1.50;;;1.40;;
44456;SDS011;30159;49.316;8.558;2023-05-07T08:28:00;2.10;;;1.90;;
44456;SDS011;30159;49.316;8.558;2023-05-07T08:30:26;2.43;;;1.50;;
44456;SDS011;30159;49.316;8.558;2023-05-07T08:32:54;1.63;;;1.53;;
44456;SDS011;30159;49.316;8.558;2023-05-07T08:35:21;1.90;;;1.80;;
44456;SDS011;30159;49.316;8.558;2023-05-07T08:37:47;1.60;;;1.50;;
44456;SDS011;30159;49.316;8.558;2023-05-07T08:40:14;2.77;;;1.50;;
44456;SDS011;30159;49.316;8.558;2023-05-07T08:42:41;1.90;;;1.60;;
44456;SDS011;30159;49.316;8.558;2023-05-07T08:45:10;1.77;;;1.67;;
44456;SDS011;30159;49.316;8.558;2023-05-07T08:47:40;3.30;;;1.67;;
44456;SDS011;30159;49.316;8.558;2023-05-07T08:50:12;2.50;;;1.80;;
44456;SDS011;30159;49.316;8.558;2023-05-07T08:52:39;1.73;;;1.63;;
44456;SDS011;30159;49.316;8.558;2023-05-07T08:55:07;1.70;;;1.60;;
44456;SDS011;30159;49.316;8.558;2023-05-07T08:57:34;1.40;;;1.30;;
44456;SDS011;30159;49.316;8.558;2023-05-07T09:00:01;1.87;;;1.77;;
44456;SDS011;30159;49.316;8.558;2023-05-07T09:02:28;1.57;;;1.47;;
44456;SDS011;30159;49.316;8.558;2023-05-07T09:04:55;2.17;;;1.90;;
44456;SDS011;30159;49.316;8.558;2023-05-07T09:07:23;2.30;;;1.67;;
44456;SDS011;30159;49.316;8.558;2023-05-07T09:09:50;1.83;;;1.73;;
44456;SDS011;30159;49.316;8.558;2023-05-07T09:12:17;1.60;;;1.50;;
44456;SDS011;30159;49.316;8.558;2023-05-07T09:14:44;1.93;;;1.57;;
44456;SDS011;30159;49.316;8.558;2023-05-07T09:17:10;1.60;;;1.50;;
44456;SDS011;30159;49.316;8.558;2023-05-07T09:19:37;1.60;;;1.50;;
44456;SDS011;30159;49.316;8.558;2023-05-07T09:22:04;1.80;;;1.70;;
44456;SDS011;30159;49.316;8.558;2023-05-07T09:24:34;1.80;;;1.70;;
44456;SDS011;30159;49.316;8.558;2023-05-07T09:27:02;2.67;;;1.80;;
44456;SDS011;30159;49.316;8.558;2023-05-07T09:29:30;1.73;;;1.63;;
44456;SDS011;30159;49.316;8.558;2023-05-07T09:32:00;1.90;;;1.80;;
44456;SDS011;30159;49.316;8.558;2023-05-07T09:34:27;1.70;;;1.60;;
44456;SDS011;30159;49.316;8.558;2023-05-07T09:36:54;2.00;;;1.80;;
44456;SDS011;30159;49.316;8.558;2023-05-07T09:39:21;2.13;;;1.60;;
44456;SDS011;30159;49.316;8.558;2023-05-07T09:41:50;1.70;;;1.60;;
44456;SDS011;30159;49.316;8.558;2023-05-07T09:44:19;4.17;;;1.47;;
44456;SDS011;30159;49.316;8.558;2023-05-07T09:46:46;1.60;;;1.50;;
44456;SDS011;30159;49.316;8.558;2023-05-07T09:49:18;1.80;;;1.70;;
44456;SDS011;30159;49.316;8.558;2023-05-07T09:51:48;4.20;;;1.60;;
44456;SDS011;30159;49.316;8.558;2023-05-07T09:54:15;1.97;;;1.50;;
44456;SDS011;30159;49.316;8.558;2023-05-07T09:56:42;2.00;;;1.90;;
44456;SDS011;30159;49.316;8.558;2023-05-07T09:59:12;1.80;;;1.70;;
44456;SDS011;30159;49.316;8.558;2023-05-07T10:01:40;1.80;;;1.70;;
44456;SDS011;30159;49.316;8.558;2023-05-07T10:04:08;1.73;;;1.63;;
44456;SDS011;30159;49.316;8.558;2023-05-07T10:06:35;1.60;;;1.50;;
44456;SDS011;30159;49.316;8.558;2023-05-07T10:09:02;1.77;;;1.67;;
44456;SDS011;30159;49.316;8.558;2023-05-07T10:11:31;1.63;;;1.53;;
44456;SDS011;30159;49.316;8.558;2023-05-07T10:13:58;1.80;;;1.70;;
44456;SDS011;30159;49.316;8.558;2023-05-07T10:16:28;2.10;;;2.00;;
44456;SDS011;30159;49.316;8.558;2023-05-07T10:18:57;1.70;;;1.60;;
44456;SDS011;30159;49.316;8.558;2023-05-07T10:21:25;2.00;;;1.90;;
44456;SDS011;30159;49.316;8.558;2023-05-07T10:23:56;1.90;;;1.80;;
44456;SDS011;30159;49.316;8.558;2023-05-07T10:26:25;4.57;;;2.10;;
44456;SDS011;30159;49.316;8.558;2023-05-07T10:28:56;2.00;;;1.90;;
44456;SDS011;30159;49.316;8.558;2023-05-07T10:31:35;1.83;;;1.70;;
44456;SDS011;30159;49.316;8.558;2023-05-07T10:34:18;3.13;;;2.00;;
44456;SDS011;30159;49.316;8.558;2023-05-07T10:36:48;2.00;;;1.90;;
44456;SDS011;30159;49.316;8.558;2023-05-07T10:39:16;2.40;;;2.30;;
44456;SDS011;30159;49.316;8.558;2023-05-07T10:41:43;3.20;;;1.80;;
44456;SDS011;30159;49.316;8.558;2023-05-07T10:44:10;2.10;;;2.00;;
44456;SDS011;30159;49.316;8.558;2023-05-07T10:46:38;2.10;;;1.67;;
44456;SDS011;30159;49.316;8.558;2023-05-07T10:49:08;1.83;;;1.73;;
44456;SDS011;30159;49.316;8.558;2023-05-07T10:51:37;2.93;;;2.73;;
44456;SDS011;30159;49.316;8.558;2023-05-07T10:54:21;1.80;;;1.70;;
44456;SDS011;30159;49.316;8.558;2023-05-07T10:56:48;1.77;;;1.67;;
44456;SDS011;30159;49.316;8.558;2023-05-07T10:59:32;1.93;;;1.83;;
44456;SDS011;30159;49.316;8.558;2023-05-07T11:02:07;1.80;;;1.70;;
44456;SDS011;30159;49.316;8.558;2023-05-07T11:04:36;2.07;;;1.97;;
44456;SDS011;30159;49.316;8.558;2023-05-07T11:10:02;1.60;;;1.50;;
44456;SDS011;30159;49.316;8.558;2023-05-07T11:12:49;1.90;;;1.80;;
44456;SDS011;30159;49.316;8.558;2023-05-07T11:18:01;1.63;;;1.53;;
44456;SDS011;30159;49.316;8.558;2023-05-07T11:20:44;1.80;;;1.70;;
44456;SDS011;30159;49.316;8.558;2023-05-07T11:26:12;2.33;;;1.90;;
44456;SDS011;30159;49.316;8.558;2023-05-07T11:28:40;2.10;;;2.00;;
44456;SDS011;30159;49.316;8.558;2023-05-07T11:31:08;1.70;;;1.60;;
44456;SDS011;30159;49.316;8.558;2023-05-07T11:33:37;1.83;;;1.73;;
44456;SDS011;30159;49.316;8.558;2023-05-07T11:36:04;1.70;;;1.60;;
44456;SDS011;30159;49.316;8.558;2023-05-07T11:38:34;1.50;;;1.40;;
44456;SDS011;30159;49.316;8.558;2023-05-07T11:41:04;2.20;;;1.50;;
44456;SDS011;30159;49.316;8.558;2023-05-07T11:43:31;2.47;;;1.60;;
44456;SDS011;30159;49.316;8.558;2023-05-07T11:46:04;1.63;;;1.53;;
44456;SDS011;30159;49.316;8.558;2023-05-07T11:48:32;2.50;;;1.50;;
44456;SDS011;30159;49.316;8.558;2023-05-07T11:51:01;1.60;;;1.50;;
44456;SDS011;30159;49.316;8.558;2023-05-07T11:53:34;1.80;;;1.70;;
44456;SDS011;30159;49.316;8.558;2023-05-07T11:56:05;1.70;;;1.60;;
44456;SDS011;30159;49.316;8.558;2023-05-07T11:58:32;1.70;;;1.60;;
44456;SDS011;30159;49.316;8.558;2023-05-07T12:00:59;1.60;;;1.50;;
44456;SDS011;30159;49.316;8.558;2023-05-07T12:03:25;1.60;;;1.50;;
44456;SDS011;30159;49.316;8.558;2023-05-07T12:05:52;1.90;;;1.70;;
44456;SDS011;30159;49.316;8.558;2023-05-07T12:08:20;2.13;;;1.60;;
44456;SDS011;30159;49.316;8.558;2023-05-07T12:10:48;1.50;;;1.40;;
44456;SDS011;30159;49.316;8.558;2023-05-07T12:13:15;2.73;;;1.67;;
44456;SDS011;30159;49.316;8.558;2023-05-07T12:15:42;1.80;;;1.70;;
44456;SDS011;30159;49.316;8.558;2023-05-07T12:18:10;3.33;;;1.50;;
44456;SDS011;30159;49.316;8.558;2023-05-07T12:20:37;2.07;;;1.87;;
44456;SDS011;30159;49.316;8.558;2023-05-07T12:23:05;1.50;;;1.40;;
44456;SDS011;30159;49.316;8.558;2023-05-07T12:25:33;2.10;;;1.53;;
44456;SDS011;30159;49.316;8.558;2023-05-07T12:28:00;3.53;;;1.73;;
44456;SDS011;30159;49.316;8.558;2023-05-07T12:30:28;3.00;;;1.70;;
44456;SDS011;30159;49.316;8.558;2023-05-07T12:32:55;1.60;;;1.50;;
44456;SDS011;30159;49.316;8.558;2023-05-07T12:35:28;2.03;;;1.93;;
44456;SDS011;30159;49.316;8.558;2023-05-07T12:37:55;1.80;;;1.70;;
44456;SDS011;30159;49.316;8.558;2023-05-07T12:40:24;1.60;;;1.50;;
44456;SDS011;30159;49.316;8.558;2023-05-07T12:42:53;1.83;;;1.73;;
44456;SDS011;30159;49.316;8.558;2023-05-07T12:45:20;2.83;;;1.50;;
44456;SDS011;30159;49.316;8.558;2023-05-07T12:47:47;1.77;;;1.67;;
44456;SDS011;30159;49.316;8.558;2023-05-07T12:50:15;1.63;;;1.53;;
44456;SDS011;30159;49.316;8.558;2023-05-07T12:52:42;1.73;;;1.50;;
44456;SDS011;30159;49.316;8.558;2023-05-07T12:55:12;2.07;;;1.97;;
44456;SDS011;30159;49.316;8.558;2023-05-07T12:57:41;1.60;;;1.50;;
44456;SDS011;30159;49.316;8.558;2023-05-07T13:00:10;1.50;;;1.40;;
44456;SDS011;30159;49.316;8.558;2023-05-07T13:02:38;1.90;;;1.80;;
44456;SDS011;30159;49.316;8.558;2023-05-07T13:05:05;1.80;;;1.70;;
44456;SDS011;30159;49.316;8.558;2023-05-07T13:07:33;1.90;;;1.80;;
44456;SDS011;30159;49.316;8.558;2023-05-07T13:09:59;1.97;;;1.87;;
44456;SDS011;30159;49.316;8.558;2023-05-07T13:12:26;2.27;;;1.50;;
44456;SDS011;30159;49.316;8.558;2023-05-07T13:14:52;1.50;;;1.40;;
44456;SDS011;30159;49.316;8.558;2023-05-07T13:17:20;1.70;;;1.60;;
44456;SDS011;30159;49.316;8.558;2023-05-07T13:19:47;1.80;;;1.70;;
44456;SDS011;30159;49.316;8.558;2023-05-07T13:22:13;1.70;;;1.60;;
44456;SDS011;30159;49.316;8.558;2023-05-07T13:24:40;2.33;;;2.17;;
44456;SDS011;30159;49.316;8.558;2023-05-07T13:27:08;1.60;;;1.50;;
44456;SDS011;30159;49.316;8.558;2023-05-07T13:29:35;1.70;;;1.60;;
44456;SDS011;30159;49.316;8.558;2023-05-07T13:32:01;1.87;;;1.60;;
44456;SDS011;30159;49.316;8.558;2023-05-07T13:34:29;2.00;;;1.90;;
44456;SDS011;30159;49.316;8.558;2023-05-07T13:36:56;1.73;;;1.63;;
44456;SDS011;30159;49.316;8.558;2023-05-07T13:39:22;6.20;;;2.07;;
44456;SDS011;30159;49.316;8.558;2023-05-07T13:41:49;1.70;;;1.60;;
44456;SDS011;30159;49.316;8.558;2023-05-07T13:44:15;1.70;;;1.60;;
44456;SDS011;30159;49.316;8.558;2023-05-07T13:46:42;1.50;;;1.40;;
44456;SDS011;30159;49.316;8.558;2023-05-07T13:49:09;1.40;;;1.30;;
44456;SDS011;30159;49.316;8.558;2023-05-07T13:51:39;1.80;;;1.70;;
44456;SDS011;30159;49.316;8.558;2023-05-07T13:54:05;2.03;;;1.50;;
44456;SDS011;30159;49.316;8.558;2023-05-07T13:56:32;1.80;;;1.70;;
44456;SDS011;30159;49.316;8.558;2023-05-07T13:58:58;1.80;;;1.70;;
44456;SDS011;30159;49.316;8.558;2023-05-07T14:01:25;1.90;;;1.80;;
44456;SDS011;30159;49.316;8.558;2023-05-07T14:03:52;1.70;;;1.60;;
44456;SDS011;30159;49.316;8.558;2023-05-07T14:06:18;2.27;;;1.67;;
44456;SDS011;30159;49.316;8.558;2023-05-07T14:08:46;2.80;;;1.60;;
44456;SDS011;30159;49.316;8.558;2023-05-07T14:11:13;1.80;;;1.70;;
44456;SDS011;30159;49.316;8.558;2023-05-07T14:13:39;2.97;;;1.83;;
44456;SDS011;30159;49.316;8.558;2023-05-07T14:16:06;2.23;;;1.70;;
44456;SDS011;30159;49.316;8.558;2023-05-07T14:18:33;2.13;;;2.03;;
44456;SDS011;30159;49.316;8.558;2023-05-07T14:21:02;3.37;;;2.70;;
44456;SDS011;30159;49.316;8.558;2023-05-07T14:23:28;2.60;;;1.33;;
44456;SDS011;30159;49.316;8.558;2023-05-07T14:25:58;3.20;;;2.10;;
44456;SDS011;30159;49.316;8.558;2023-05-07T14:28:24;1.60;;;1.50;;
44456;SDS011;30159;49.316;8.558;2023-05-07T14:30:51;3.47;;;1.43;;
44456;SDS011;30159;49.316;8.558;2023-05-07T14:33:17;2.77;;;1.40;;
44456;SDS011;30159;49.316;8.558;2023-05-07T14:35:44;1.83;;;1.20;;
44456;SDS011;30159;49.316;8.558;2023-05-07T14:38:13;1.10;;;1.00;;
44456;SDS011;30159;49.316;8.558;2023-05-07T14:40:40;2.17;;;1.20;;
44456;SDS011;30159;49.316;8.558;2023-05-07T14:43:08;1.10;;;1.00;;
44456;SDS011;30159;49.316;8.558;2023-05-07T14:45:35;2.53;;;1.70;;
44456;SDS011;30159;49.316;8.558;2023-05-07T14:48:01;4.00;;;1.93;;
44456;SDS011;30159;49.316;8.558;2023-05-07T14:50:28;2.17;;;1.90;;
44456;SDS011;30159;49.316;8.558;2023-05-07T14:52:54;4.10;;;1.63;;
44456;SDS011;30159;49.316;8.558;2023-05-07T14:55:21;4.67;;;2.60;;
44456;SDS011;30159;49.316;8.558;2023-05-07T14:57:48;1.50;;;1.40;;